Time;durP1;ratioP1;P1;durP2;ratioP2;P2;SDS_P1;SDS_P2;PMS_P1;PMS_P2;Temp;Humidity;BMP_temperature;BMP_pressure;BME280_temperature;BME280_humidity;BME280_pressure;Samples;Min_cycle;Max_cycle;Signal;HPM_P1;HPM_P2
2024/03/15 00:00:09;;;;;;;1.30;1.20;;;20.50;80.70;;;;;;5020799;28;20200;-40
2024/03/15 00:02:41;;;;;;;1.40;1.30;;;20.50;80.80;;;;;;5026709;28;20195;-40
2024/03/15 00:05:10;;;;;;;1.20;1.08;;;20.50;80.80;;;;;;5027144;28;20202;-40
2024/03/15 00:07:38;;;;;;;1.33;1.23;;;20.50;80.80;;;;;;5017231;28;20206;-40
2024/03/15 00:10:05;;;;;;;1.60;1.40;;;20.50;80.80;;;;;;5026258;28;20289;-41
2024/03/15 00:12:33;;;;;;;3.15;1.13;;;20.50;80.80;;;;;;5030523;28;20205;-40
2024/03/15 00:15:00;;;;;;;1.60;1.25;;;20.50;80.80;;;;;;5024419;28;20209;-40
2024/03/15 00:17:27;;;;;;;1.10;1.00;;;20.50;80.80;;;;;;5020153;28;20783;-40
2024/03/15 00:20:00;;;;;;;1.38;1.20;;;20.50;80.90;;;;;;5030056;28;20676;-40
2024/03/15 00:22:34;;;;;;;1.30;0.93;;;20.50;80.90;;;;;;5031032;28;20693;-40
2024/03/15 00:25:03;;;;;;;1.20;0.90;;;20.40;80.80;;;;;;5028823;28;20229;-40
2024/03/15 00:27:32;;;;;;;2.28;1.85;;;20.40;80.80;;;;;;5024916;28;20731;-40
2024/03/15 00:29:59;;;;;;;2.00;0.90;;;20.40;81.70;;;;;;5023598;28;20301;-40
2024/03/15 00:32:27;;;;;;;1.23;1.00;;;20.40;80.90;;;;;;5020637;28;20210;-41
2024/03/15 00:34:54;;;;;;;2.25;1.00;;;20.40;80.90;;;;;;5024552;28;20206;-40
2024/03/15 00:37:23;;;;;;;1.10;1.00;;;20.40;80.90;;;;;;5026859;28;20218;-40
2024/03/15 00:39:58;;;;;;;2.78;1.75;;;20.40;81.00;;;;;;5025053;28;20604;-39
2024/03/15 00:42:26;;;;;;;1.10;0.82;;;20.40;81.00;;;;;;5045096;28;20283;-41
2024/03/15 00:44:55;;;;;;;1.95;1.42;;;20.40;81.00;;;;;;5031093;28;20239;-40
2024/03/15 00:47:28;;;;;;;1.63;1.00;;;20.40;81.00;;;;;;5025452;28;20207;-41
2024/03/15 00:49:57;;;;;;;1.60;1.15;;;20.30;81.00;;;;;;5016791;28;20491;-41
2024/03/15 00:52:24;;;;;;;1.20;1.00;;;20.40;81.20;;;;;;5020278;28;20202;-40
2024/03/15 00:54:52;;;;;;;1.50;1.13;;;20.30;81.20;;;;;;5031103;28;20210;-40
2024/03/15 00:57:19;;;;;;;1.88;1.08;;;20.30;81.10;;;;;;5044508;28;20724;-40
2024/03/15 00:59:46;;;;;;;1.33;0.90;;;20.30;81.20;;;;;;5028085;28;20515;-40
2024/03/15 01:02:13;;;;;;;2.97;1.17;;;20.30;82.00;;;;;;5025635;28;20194;-40
2024/03/15 01:04:41;;;;;;;1.85;0.90;;;20.30;81.20;;;;;;5026634;28;20507;-40
2024/03/15 01:07:08;;;;;;;1.20;1.00;;;20.20;81.10;;;;;;5028525;28;20293;-40
2024/03/15 01:09:35;;;;;;;1.30;1.02;;;20.30;81.30;;;;;;5029872;28;20197;-40
2024/03/15 01:12:06;;;;;;;1.25;0.95;;;20.20;81.30;;;;;;5035630;28;20206;-40
2024/03/15 01:14:36;;;;;;;1.30;1.00;;;20.20;81.40;;;;;;5024465;28;20609;-41
2024/03/15 01:17:03;;;;;;;1.20;1.00;;;20.20;81.50;;;;;;5032292;28;20560;-40
2024/03/15 01:19:32;;;;;;;1.10;0.90;;;20.20;81.50;;;;;;5029597;28;20209;-40
2024/03/15 01:22:00;;;;;;;1.20;1.00;;;20.20;81.70;;;;;;5035300;28;21260;-40
2024/03/15 01:24:30;;;;;;;1.70;0.95;;;20.10;81.60;;;;;;5007661;28;20678;-40
2024/03/15 01:26:57;;;;;;;1.00;0.80;;;20.10;81.70;;;;;;5024664;28;20291;-40
2024/03/15 01:29:26;;;;;;;1.00;0.90;;;20.10;81.70;;;;;;5035480;28;20606;-40
2024/03/15 01:31:53;;;;;;;1.40;1.15;;;20.10;81.80;;;;;;5024567;28;20198;-39
2024/03/15 01:34:21;;;;;;;1.30;0.88;;;20.10;81.80;;;;;;5021320;28;20709;-40
2024/03/15 01:36:51;;;;;;;1.50;1.10;;;20.10;82.00;;;;;;5023312;28;20788;-39
2024/03/15 01:39:18;;;;;;;1.27;1.08;;;20.10;82.00;;;;;;5029503;28;20213;-39
2024/03/15 01:41:47;;;;;;;1.40;0.95;;;20.10;82.00;;;;;;5026487;28;20210;-41
2024/03/15 01:44:14;;;;;;;1.20;1.08;;;20.00;82.00;;;;;;5027357;28;20198;-39
2024/03/15 01:46:46;;;;;;;1.65;0.90;;;20.00;82.00;;;;;;5023964;28;20198;-40
2024/03/15 01:49:13;;;;;;;1.25;1.05;;;20.00;82.10;;;;;;5042604;28;20626;-40
2024/03/15 01:51:41;;;;;;;1.65;1.00;;;20.00;82.10;;;;;;5024648;28;20199;-40
2024/03/15 01:54:10;;;;;;;1.30;0.90;;;20.00;82.10;;;;;;5024363;28;20256;-40
2024/03/15 01:56:44;;;;;;;1.20;1.10;;;20.00;82.20;;;;;;5032280;28;20239;-40
2024/03/15 01:59:24;;;;;;;1.10;0.95;;;20.00;82.30;;;;;;5031302;28;20229;-40
2024/03/15 02:01:54;;;;;;;1.77;1.10;;;20.00;82.30;;;;;;5027836;28;20199;-39
2024/03/15 02:04:21;;;;;;;1.27;1.05;;;19.90;82.30;;;;;;5031844;28;20199;-39
2024/03/15 02:06:48;;;;;;;1.30;1.10;;;19.90;82.30;;;;;;5028756;28;20207;-39
2024/03/15 02:09:15;;;;;;;2.13;1.10;;;19.90;82.40;;;;;;5030769;28;20194;-40
2024/03/15 02:11:43;;;;;;;1.85;1.38;;;19.90;82.50;;;;;;5029352;28;20391;-41
2024/03/15 02:14:11;;;;;;;1.20;1.00;;;19.90;82.60;;;;;;5031218;28;21085;-40
2024/03/15 02:16:38;;;;;;;1.40;0.88;;;19.90;82.60;;;;;;5024608;28;20312;-40
2024/03/15 02:19:06;;;;;;;1.30;1.00;;;19.90;82.70;;;;;;5030177;28;20293;-40
2024/03/15 02:21:33;;;;;;;1.30;0.95;;;19.90;82.70;;;;;;5043993;28;20891;-40
2024/03/15 02:24:09;;;;;;;1.63;0.98;;;19.80;82.70;;;;;;5029570;28;20655;-40
2024/03/15 02:26:39;;;;;;;1.15;0.80;;;19.80;82.80;;;;;;5024922;28;20197;-40
2024/03/15 02:29:08;;;;;;;1.10;1.00;;;19.80;82.80;;;;;;5032164;28;20243;-40
2024/03/15 02:31:34;;;;;;;1.67;1.30;;;19.80;82.90;;;;;;5029653;28;20732;-41
2024/03/15 02:34:03;;;;;;;1.13;0.90;;;19.80;82.90;;;;;;5021077;28;20202;-40
2024/03/15 02:36:32;;;;;;;1.50;1.20;;;19.80;83.00;;;;;;5029603;28;20203;-40
2024/03/15 02:39:01;;;;;;;1.40;1.10;;;19.80;83.10;;;;;;5027169;28;20205;-39
2024/03/15 02:41:31;;;;;;;1.42;0.95;;;19.80;83.10;;;;;;5030932;28;20288;-40
2024/03/15 02:44:02;;;;;;;1.23;1.13;;;19.80;83.20;;;;;;5020952;28;20583;-40
2024/03/15 02:46:30;;;;;;;1.48;0.82;;;19.70;83.10;;;;;;5028782;28;20198;-40
2024/03/15 02:49:00;;;;;;;1.30;0.93;;;19.70;83.20;;;;;;5029088;28;20202;-40
2024/03/15 02:51:28;;;;;;;1.05;0.90;;;19.70;83.20;;;;;;5029514;28;20213;-40
2024/03/15 02:53:55;;;;;;;1.25;0.80;;;19.70;83.20;;;;;;5032781;28;20297;-40
2024/03/15 02:56:24;;;;;;;1.75;1.15;;;19.70;83.40;;;;;;5031091;28;20213;-40
2024/03/15 02:58:52;;;;;;;1.23;1.13;;;19.70;83.40;;;;;;5027601;28;20240;-40
2024/03/15 03:01:25;;;;;;;2.55;1.20;;;19.70;83.50;;;;;;5027636;28;20191;-39
2024/03/15 03:03:55;;;;;;;1.63;1.13;;;19.70;83.60;;;;;;5044365;28;20422;-40
2024/03/15 03:06:27;;;;;;;1.35;1.05;;;19.70;83.60;;;;;;5026602;28;20207;-40
2024/03/15 03:08:57;;;;;;;1.10;1.00;;;19.60;83.60;;;;;;5026859;28;20284;-40
2024/03/15 03:11:28;;;;;;;1.20;1.10;;;19.60;83.70;;;;;;5020920;28;20205;-40
2024/03/15 03:13:58;;;;;;;1.35;0.88;;;19.60;83.80;;;;;;5022586;28;20654;-40
2024/03/15 03:16:25;;;;;;;1.42;1.02;;;19.60;83.80;;;;;;5024912;28;20603;-40
2024/03/15 03:19:09;;;;;;;1.17;0.95;;;19.60;83.90;;;;;;5026226;28;20229;-39
2024/03/15 03:21:37;;;;;;;1.30;1.10;;;19.60;84.00;;;;;;5038897;28;20690;-39
2024/03/15 03:24:06;;;;;;;1.10;1.00;;;19.50;83.90;;;;;;5027784;28;20660;-40
2024/03/15 03:26:32;;;;;;;1.70;0.98;;;19.50;84.00;;;;;;5026428;28;20203;-40
2024/03/15 03:29:01;;;;;;;1.40;1.23;;;19.50;84.00;;;;;;5023832;28;20202;-40
2024/03/15 03:31:28;;;;;;;1.67;1.05;;;19.50;84.90;;;;;;5024093;28;20715;-40
2024/03/15 03:34:00;;;;;;;1.10;0.85;;;19.50;84.10;;;;;;5025006;28;20363;-39
2024/03/15 03:36:28;;;;;;;1.20;0.90;;;19.50;84.20;;;;;;5021982;28;20674;-40
2024/03/15 03:38:55;;;;;;;1.95;1.20;;;19.50;84.20;;;;;;5027841;28;20223;-39
2024/03/15 03:41:27;;;;;;;2.08;1.20;;;19.50;84.40;;;;;;5030231;28;20665;-40
2024/03/15 03:44:00;;;;;;;1.42;0.90;;;19.50;84.50;;;;;;5022006;28;20198;-40
2024/03/15 03:46:27;;;;;;;1.38;0.82;;;19.40;84.30;;;;;;5020626;28;20663;-45
2024/03/15 03:48:58;;;;;;;1.20;1.00;;;19.40;84.50;;;;;;5025625;28;20197;-40
2024/03/15 03:51:28;;;;;;;1.30;0.90;;;19.40;84.50;;;;;;5023641;28;20249;-41
2024/03/15 03:53:57;;;;;;;1.15;0.90;;;19.40;84.60;;;;;;5029849;28;20768;-40
2024/03/15 03:56:29;;;;;;;2.03;0.90;;;19.40;84.70;;;;;;5031009;28;20677;-40
2024/03/15 03:58:55;;;;;;;1.58;0.90;;;19.40;84.70;;;;;;5027578;28;20218;-39
2024/03/15 04:01:29;;;;;;;1.20;1.05;;;19.40;84.80;;;;;;5024253;28;20453;-40
2024/03/15 04:03:58;;;;;;;1.35;1.00;;;19.40;84.80;;;;;;5034302;28;20194;-40
2024/03/15 04:06:28;;;;;;;1.00;0.90;;;19.40;85.00;;;;;;5030561;28;20195;-40
2024/03/15 04:08:58;;;;;;;1.38;1.10;;;19.30;84.80;;;;;;5031510;28;20199;-40
2024/03/15 04:11:25;;;;;;;1.58;0.90;;;19.30;85.10;;;;;;5025811;28;20261;-40
2024/03/15 04:13:55;;;;;;;1.20;0.98;;;19.30;85.00;;;;;;5021718;28;20325;-40
2024/03/15 04:16:25;;;;;;;1.42;1.00;;;19.30;85.10;;;;;;5026334;28;20206;-40
2024/03/15 04:18:53;;;;;;;1.30;0.88;;;19.30;85.20;;;;;;5028434;28;20219;-40
2024/03/15 04:21:21;;;;;;;1.08;0.90;;;19.30;85.20;;;;;;5047439;28;20807;-40
2024/03/15 04:23:55;;;;;;;1.20;1.00;;;19.30;85.30;;;;;;5024840;28;20225;-40
2024/03/15 04:26:24;;;;;;;1.13;1.00;;;19.20;85.20;;;;;;5015149;28;20571;-40
2024/03/15 04:28:54;;;;;;;1.30;0.80;;;19.20;85.30;;;;;;5026000;28;20279;-40
2024/03/15 04:31:21;;;;;;;1.05;0.82;;;19.20;85.30;;;;;;5029932;28;20202;-39
2024/03/15 04:33:49;;;;;;;1.20;1.10;;;19.20;85.40;;;;;;5016824;28;20210;-39
2024/03/15 04:36:22;;;;;;;1.52;1.08;;;19.20;85.40;;;;;;5009490;28;20194;-40
2024/03/15 04:38:51;;;;;;;1.30;1.20;;;19.20;85.50;;;;;;5013998;28;20710;-40
2024/03/15 04:41:21;;;;;;;1.10;0.90;;;19.20;85.60;;;;;;5027197;28;20610;-39
2024/03/15 04:43:47;;;;;;;1.20;1.00;;;19.20;85.70;;;;;;5022209;28;20203;-39
2024/03/15 04:46:17;;;;;;;1.10;0.90;;;19.20;85.70;;;;;;5015278;28;20206;-40
2024/03/15 04:48:48;;;;;;;1.13;0.90;;;19.20;85.80;;;;;;5017196;28;20217;-40
2024/03/15 04:51:21;;;;;;;1.45;1.02;;;19.10;85.70;;;;;;5023765;28;20232;-40
2024/03/15 04:53:48;;;;;;;1.10;0.90;;;19.10;85.80;;;;;;5023430;28;20205;-39
2024/03/15 04:56:15;;;;;;;1.20;1.10;;;19.10;85.90;;;;;;5023596;28;20195;-40
2024/03/15 04:58:52;;;;;;;1.10;0.80;;;19.10;86.00;;;;;;5028291;28;20229;-39
2024/03/15 05:01:22;;;;;;;1.10;0.85;;;19.10;86.00;;;;;;5026879;28;20769;-39
2024/03/15 05:03:53;;;;;;;1.20;0.90;;;19.10;86.10;;;;;;5028355;28;20199;-39
2024/03/15 05:06:30;;;;;;;1.00;0.88;;;19.10;86.10;;;;;;5024532;28;20202;-39
2024/03/15 05:08:58;;;;;;;1.02;0.85;;;19.10;86.10;;;;;;5023362;28;20198;-40
2024/03/15 05:11:27;;;;;;;1.58;0.80;;;19.10;86.20;;;;;;5025441;28;20203;-40
2024/03/15 05:13:56;;;;;;;1.20;1.00;;;19.10;86.20;;;;;;5030215;28;20194;-39
2024/03/15 05:16:28;;;;;;;1.02;0.90;;;19.10;86.30;;;;;;5022974;28;20207;-40
2024/03/15 05:18:56;;;;;;;1.30;0.90;;;19.00;86.30;;;;;;5027815;28;20211;-39
2024/03/15 05:21:29;;;;;;;1.10;0.93;;;19.00;86.30;;;;;;5020446;28;20190;-39
2024/03/15 05:23:57;;;;;;;1.10;0.90;;;19.00;86.40;;;;;;5027185;28;20282;-40
2024/03/15 05:26:24;;;;;;;1.10;0.98;;;19.00;86.50;;;;;;5030945;28;20539;-40
2024/03/15 05:28:51;;;;;;;1.25;0.90;;;19.00;86.50;;;;;;5021243;28;20289;-40
2024/03/15 05:31:21;;;;;;;1.10;0.82;;;19.00;86.60;;;;;;5021960;28;20195;-40
2024/03/15 05:33:50;;;;;;;1.10;1.00;;;19.00;86.60;;;;;;5022085;28;20671;-40
2024/03/15 05:36:16;;;;;;;1.10;0.80;;;19.00;86.60;;;;;;5014045;28;20638;-40
2024/03/15 05:38:43;;;;;;;1.50;1.20;;;19.00;86.70;;;;;;5022381;28;20217;-40
2024/03/15 05:41:10;;;;;;;1.17;0.95;;;19.00;86.70;;;;;;5023911;28;20960;-40
2024/03/15 05:43:40;;;;;;;1.55;0.90;;;19.00;86.80;;;;;;5021683;28;20203;-41
2024/03/15 05:46:11;;;;;;;1.00;0.70;;;18.90;86.70;;;;;;5023259;28;20281;-40
2024/03/15 05:48:41;;;;;;;1.30;0.90;;;18.90;86.80;;;;;;5022845;28;20198;-39
2024/03/15 05:51:11;;;;;;;1.20;1.00;;;18.90;86.80;;;;;;5025584;28;20199;-39
2024/03/15 05:53:48;;;;;;;2.55;0.90;;;18.90;86.90;;;;;;5024381;28;20206;-40
2024/03/15 05:56:18;;;;;;;1.40;0.90;;;18.90;87.00;;;;;;5019479;28;20205;-40
2024/03/15 05:58:48;;;;;;;1.20;0.98;;;18.90;87.00;;;;;;5024075;28;20222;-40
2024/03/15 06:01:19;;;;;;;2.85;0.90;;;18.90;87.00;;;;;;5025939;28;20202;-39
2024/03/15 06:03:46;;;;;;;1.20;0.90;;;18.90;87.10;;;;;;5026513;28;20195;-40
2024/03/15 06:06:19;;;;;;;1.00;0.77;;;18.90;87.10;;;;;;5022322;28;20773;-40
2024/03/15 06:08:47;;;;;;;1.10;0.90;;;18.90;87.20;;;;;;5035135;28;20209;-39
2024/03/15 06:11:14;;;;;;;1.45;0.90;;;18.90;87.20;;;;;;5028100;28;20286;-39
2024/03/15 06:13:43;;;;;;;1.10;0.80;;;18.90;87.20;;;;;;5024171;28;20237;-39
2024/03/15 06:16:16;;;;;;;1.10;1.00;;;18.90;87.30;;;;;;5018252;28;20194;-40
2024/03/15 06:18:49;;;;;;;1.20;0.93;;;18.90;87.40;;;;;;5022323;28;20602;-39
2024/03/15 06:21:16;;;;;;;1.15;0.90;;;18.90;87.40;;;;;;5040360;28;20659;-40
2024/03/15 06:23:44;;;;;;;1.10;0.98;;;18.80;87.40;;;;;;5020529;28;20199;-39
2024/03/15 06:26:15;;;;;;;1.35;1.05;;;18.80;87.40;;;;;;5025286;28;20206;-40
2024/03/15 06:28:45;;;;;;;1.00;0.80;;;18.80;87.50;;;;;;5016977;28;20205;-40
2024/03/15 06:31:11;;;;;;;2.88;0.85;;;18.90;87.70;;;;;;5032677;28;20194;-40
2024/03/15 06:33:40;;;;;;;1.00;0.70;;;18.80;87.90;;;;;;5022125;28;20206;-39
2024/03/15 06:36:12;;;;;;;1.00;0.80;;;18.80;87.90;;;;;;5024826;28;20782;-39
2024/03/15 06:38:51;;;;;;;1.20;0.80;;;18.80;88.00;;;;;;5036254;28;20372;-39
2024/03/15 06:41:37;;;;;;;1.10;0.88;;;18.80;88.00;;;;;;5024777;28;20253;-39
2024/03/15 06:44:19;;;;;;;1.52;0.90;;;18.80;88.00;;;;;;5025922;28;20429;-40
2024/03/15 06:47:04;;;;;;;1.20;0.90;;;18.80;88.00;;;;;;5019448;28;20194;-39
2024/03/15 06:49:43;;;;;;;1.40;0.90;;;18.80;88.10;;;;;;5038920;28;20215;-39
2024/03/15 06:55:01;;;;;;;1.42;0.82;;;18.80;88.10;;;;;;5018359;28;20210;-39
2024/03/15 06:57:34;;;;;;;1.20;1.00;;;18.80;88.10;;;;;;5019075;28;20202;-40
2024/03/15 07:00:14;;;;;;;1.20;1.10;;;18.80;88.20;;;;;;5026826;28;20213;-39
2024/03/15 07:02:45;;;;;;;1.00;0.80;;;18.80;88.10;;;;;;5020107;28;20222;-40
2024/03/15 07:05:13;;;;;;;1.10;0.80;;;18.80;88.10;;;;;;5020979;28;20954;-41
2024/03/15 07:07:40;;;;;;;1.20;0.88;;;18.80;88.10;;;;;;5028874;28;20559;-39
2024/03/15 07:10:13;;;;;;;1.20;1.00;;;18.80;88.10;;;;;;5026469;28;20205;-40
2024/03/15 07:12:46;;;;;;;1.20;1.00;;;18.80;88.10;;;;;;5022778;28;20706;-40
2024/03/15 07:15:15;;;;;;;1.15;1.00;;;18.80;88.10;;;;;;5027874;28;20206;-40
2024/03/15 07:17:47;;;;;;;1.00;0.75;;;18.80;88.10;;;;;;5027354;28;20194;-40
2024/03/15 07:20:14;;;;;;;1.10;0.95;;;18.80;88.10;;;;;;5028223;28;20712;-39
2024/03/15 07:22:41;;;;;;;1.00;0.80;;;18.80;88.10;;;;;;5025030;28;20214;-40
2024/03/15 07:25:11;;;;;;;2.28;0.90;;;18.80;88.10;;;;;;5044214;28;20317;-40
2024/03/15 07:27:43;;;;;;;1.00;0.80;;;18.80;88.10;;;;;;5036375;28;20871;-40
2024/03/15 07:30:13;;;;;;;1.00;0.90;;;18.80;88.30;;;;;;5041590;28;20203;-39
2024/03/15 07:32:39;;;;;;;1.30;0.95;;;18.90;88.30;;;;;;5028010;28;20202;-40
2024/03/15 07:35:11;;;;;;;1.10;0.95;;;19.10;88.10;;;;;;5030684;28;20711;-41
2024/03/15 07:37:42;;;;;;;1.13;1.00;;;19.20;87.90;;;;;;5017452;28;20249;-40
2024/03/15 07:40:10;;;;;;;1.15;0.80;;;19.10;87.90;;;;;;5038822;28;20313;-43
2024/03/15 07:42:38;;;;;;;1.30;0.85;;;19.20;88.00;;;;;;5022040;28;20205;-40
2024/03/15 07:45:05;;;;;;;5.28;1.23;;;19.20;87.90;;;;;;5031849;28;20565;-41
2024/03/15 07:47:33;;;;;;;1.17;0.93;;;19.20;87.80;;;;;;5020390;28;20191;-44
2024/03/15 07:50:07;;;;;;;1.00;0.70;;;19.30;87.90;;;;;;5031280;28;20407;-41
2024/03/15 07:52:44;;;;;;;1.10;1.00;;;19.40;87.90;;;;;;5031990;28;20305;-38
2024/03/15 07:55:12;;;;;;;2.00;0.90;;;19.40;87.50;;;;;;5024195;28;20228;-41
2024/03/15 07:57:44;;;;;;;1.20;1.00;;;19.50;87.40;;;;;;5016807;28;20198;-39
2024/03/15 08:00:14;;;;;;;1.00;0.90;;;19.60;87.00;;;;;;5022665;28;20720;-40
2024/03/15 08:02:42;;;;;;;1.42;1.10;;;19.60;86.80;;;;;;5025412;28;20686;-38
2024/03/15 08:05:12;;;;;;;1.48;1.05;;;19.60;86.60;;;;;;5026420;28;20210;-39
2024/03/15 08:07:40;;;;;;;1.23;0.88;;;19.60;86.50;;;;;;5024231;28;20285;-40
2024/03/15 08:10:11;;;;;;;1.70;1.00;;;19.60;86.30;;;;;;5034150;28;20335;-39
2024/03/15 08:12:39;;;;;;;1.10;0.80;;;19.60;86.30;;;;;;5014355;28;20198;-39
2024/03/15 08:15:08;;;;;;;1.30;1.00;;;19.60;86.10;;;;;;5025056;28;20201;-40
2024/03/15 08:17:35;;;;;;;1.15;0.70;;;19.70;86.20;;;;;;5038342;28;20808;-44
2024/03/15 08:20:08;;;;;;;1.00;0.85;;;19.70;86.00;;;;;;5026505;28;20310;-40
2024/03/15 08:22:45;;;;;;;3.67;1.80;;;19.70;86.20;;;;;;5022413;28;20198;-44
2024/03/15 08:25:18;;;;;;;5.78;3.28;;;19.70;86.50;;;;;;5041285;28;20729;-40
2024/03/15 08:27:46;;;;;;;8.75;5.47;;;19.70;87.70;;;;;;5020308;28;20206;-41
2024/03/15 08:30:16;;;;;;;10.98;5.65;;;19.70;88.60;;;;;;5016582;28;20663;-42
2024/03/15 08:32:47;;;;;;;7.38;5.25;;;19.70;89.30;;;;;;5024620;28;20290;-39
2024/03/15 08:35:17;;;;;;;7.72;5.90;;;19.70;89.80;;;;;;5036309;28;20606;-40
2024/03/15 08:37:44;;;;;;;12.10;5.93;;;19.70;90.10;;;;;;5014116;28;20196;-41
2024/03/15 08:40:12;;;;;;;7.93;5.55;;;19.80;90.30;;;;;;5012703;28;20247;-39
2024/03/15 08:42:44;;;;;;;6.55;4.80;;;19.80;90.50;;;;;;5019297;28;20226;-42
2024/03/15 08:45:11;;;;;;;7.43;5.47;;;19.80;90.60;;;;;;5020340;28;20218;-39
2024/03/15 08:47:41;;;;;;;13.45;5.95;;;19.80;90.60;;;;;;5035006;28;20221;-43
2024/03/15 08:50:11;;;;;;;12.88;6.45;;;19.80;90.60;;;;;;5022704;28;20202;-40
2024/03/15 08:52:48;;;;;;;8.15;6.00;;;19.80;90.60;;;;;;5034956;28;20675;-39
2024/03/15 08:55:21;;;;;;;6.50;5.03;;;19.80;90.70;;;;;;5035011;28;20256;-37
2024/03/15 08:57:50;;;;;;;8.25;6.45;;;19.90;90.70;;;;;;5024255;28;20190;-41
2024/03/15 09:00:21;;;;;;;12.20;6.80;;;19.90;90.70;;;;;;5038172;28;20694;-40
2024/03/15 09:02:49;;;;;;;8.68;6.53;;;19.90;90.60;;;;;;5040428;28;20284;-40
2024/03/15 09:05:16;;;;;;;9.38;7.20;;;20.00;90.70;;;;;;5022062;28;20559;-39
2024/03/15 09:07:43;;;;;;;7.22;5.90;;;20.00;90.60;;;;;;5020397;28;20552;-39
2024/03/15 09:10:13;;;;;;;7.05;6.07;;;20.00;90.60;;;;;;5019969;28;20559;-42
2024/03/15 09:12:44;;;;;;;14.57;6.30;;;20.00;90.60;;;;;;5022949;28;20623;-37
2024/03/15 09:15:12;;;;;;;8.80;6.18;;;20.00;90.60;;;;;;5021270;28;20195;-40
2024/03/15 09:17:39;;;;;;;7.35;5.88;;;20.00;90.50;;;;;;5017650;28;20262;-39
2024/03/15 09:20:18;;;;;;;7.97;6.22;;;20.10;90.50;;;;;;5021400;28;20301;-40
2024/03/15 09:22:47;;;;;;;8.40;5.85;;;20.00;90.40;;;;;;5040528;28;20205;-39
2024/03/15 09:25:18;;;;;;;8.73;6.40;;;20.10;90.40;;;;;;5019872;28;20670;-39
2024/03/15 09:27:46;;;;;;;8.00;6.82;;;20.10;90.40;;;;;;5018351;28;20280;-43
2024/03/15 09:30:17;;;;;;;7.43;6.00;;;20.10;90.40;;;;;;5026843;28;20194;-40
2024/03/15 09:32:48;;;;;;;10.00;6.10;;;20.10;90.40;;;;;;5025629;28;20203;-40
2024/03/15 09:35:15;;;;;;;9.77;7.05;;;20.10;90.40;;;;;;5016277;28;20657;-42
2024/03/15 09:37:46;;;;;;;7.60;6.25;;;20.10;90.40;;;;;;5021993;28;20198;-40
2024/03/15 09:40:16;;;;;;;7.38;6.57;;;20.10;90.30;;;;;;5020449;28;20214;-40
2024/03/15 09:42:43;;;;;;;7.55;6.00;;;20.20;90.30;;;;;;5017764;28;20602;-41
2024/03/15 09:45:10;;;;;;;5.35;4.90;;;20.20;90.30;;;;;;5030057;28;20255;-42
2024/03/15 09:47:45;;;;;;;9.40;6.35;;;20.20;90.20;;;;;;5026851;28;20232;-41
2024/03/15 09:50:21;;;;;;;12.25;6.55;;;20.20;90.30;;;;;;5029851;28;20206;-39
2024/03/15 09:52:49;;;;;;;9.13;5.75;;;20.20;90.30;;;;;;5031712;28;20292;-40
2024/03/15 09:55:16;;;;;;;8.82;5.35;;;20.20;90.20;;;;;;5026841;28;20206;-43
2024/03/15 09:57:46;;;;;;;5.90;5.35;;;20.30;90.10;;;;;;5025418;28;20554;-42
2024/03/15 10:00:17;;;;;;;7.55;5.78;;;20.30;90.00;;;;;;5025933;28;20218;-39
2024/03/15 10:02:44;;;;;;;7.35;5.72;;;20.30;89.70;;;;;;5045596;28;20199;-39
2024/03/15 10:05:14;;;;;;;6.32;5.20;;;20.30;89.50;;;;;;5045727;28;20773;-40
2024/03/15 10:07:45;;;;;;;6.43;5.05;;;20.30;89.30;;;;;;5025532;28;20198;-44
2024/03/15 10:10:13;;;;;;;7.75;4.45;;;20.30;89.10;;;;;;5030446;28;20434;-41
2024/03/15 10:12:42;;;;;;;6.57;5.93;;;20.30;88.90;;;;;;5030562;28;20435;-40
2024/03/15 10:15:12;;;;;;;11.48;6.28;;;20.40;88.70;;;;;;5029290;28;20757;-40
2024/03/15 10:17:40;;;;;;;7.05;5.43;;;20.30;88.40;;;;;;5042697;28;20208;-43
2024/03/15 10:20:10;;;;;;;9.93;4.90;;;20.40;88.30;;;;;;5031404;28;20276;-37
2024/03/15 10:22:41;;;;;;;5.15;4.65;;;20.40;88.10;;;;;;5022676;28;20199;-39
2024/03/15 10:25:18;;;;;;;5.78;4.22;;;20.40;87.90;;;;;;5027339;28;20281;-37
2024/03/15 10:27:50;;;;;;;5.78;4.53;;;20.40;87.60;;;;;;5014746;28;20281;-39
2024/03/15 10:30:22;;;;;;;7.82;5.20;;;20.50;87.50;;;;;;5014488;28;20757;-41
2024/03/15 10:32:55;;;;;;;6.43;4.80;;;20.50;87.40;;;;;;5030162;28;20442;-41
2024/03/15 10:35:38;;;;;;;7.20;5.05;;;20.50;87.10;;;;;;5021703;28;20250;-40
2024/03/15 10:38:12;;;;;;;6.40;5.40;;;20.50;86.90;;;;;;5030807;28;20676;-40
2024/03/15 10:40:40;;;;;;;5.78;5.00;;;20.50;86.80;;;;;;5028252;28;20222;-38
2024/03/15 10:43:10;;;;;;;6.93;5.57;;;20.60;86.70;;;;;;5049813;28;20745;-39
2024/03/15 10:45:41;;;;;;;6.85;3.80;;;20.60;86.40;;;;;;5027120;28;20831;-40
2024/03/15 10:48:08;;;;;;;5.40;4.50;;;20.60;86.30;;;;;;5024580;28;20194;-41
2024/03/15 10:50:36;;;;;;;5.20;4.40;;;20.60;85.70;;;;;;5040208;28;20526;-39
2024/03/15 10:53:05;;;;;;;5.45;4.78;;;20.60;85.90;;;;;;5027591;28;20195;-41
2024/03/15 10:55:38;;;;;;;5.45;4.57;;;20.60;85.70;;;;;;5044270;28;20190;-42
2024/03/15 10:58:10;;;;;;;5.13;4.63;;;20.70;85.60;;;;;;5027936;28;20284;-41
2024/03/15 11:00:37;;;;;;;8.40;5.18;;;20.70;85.50;;;;;;5024460;28;20245;-40
2024/03/15 11:03:11;;;;;;;6.07;4.95;;;20.70;85.30;;;;;;5021846;28;20663;-38
2024/03/15 11:05:41;;;;;;;5.80;4.78;;;20.70;85.00;;;;;;5031407;28;20213;-40
2024/03/15 11:08:09;;;;;;;4.82;4.22;;;20.70;84.90;;;;;;5020183;28;20229;-42
2024/03/15 11:10:39;;;;;;;4.30;3.90;;;20.70;84.60;;;;;;5023420;28;20209;-40
2024/03/15 11:13:07;;;;;;;4.95;4.45;;;20.80;84.60;;;;;;5029327;28;20460;-39
2024/03/15 11:15:46;;;;;;;;;;;;;;;;;;;;;
2024/03/15 11:18:17;;;;;;;4.10;2.95;;;20.80;84.30;;;;;;5029959;28;20196;-39
2024/03/15 11:20:44;;;;;;;6.78;2.97;;;20.50;76.80;;;;;;5031662;28;20246;-41
2024/03/15 11:23:18;;;;;;;3.15;2.85;;;20.30;76.90;;;;;;5043705;28;20380;-38
2024/03/15 11:25:54;;;;;;;3.97;2.47;;;20.10;91.30;;;;;;5027194;28;20206;-39
2024/03/15 11:28:28;;;;;;;3.95;2.88;;;20.00;88.70;;;;;;5032353;28;20796;-40
2024/03/15 11:30:55;;;;;;;6.97;2.88;;;20.20;90.10;;;;;;5029088;28;20230;-40
2024/03/15 11:33:22;;;;;;;4.15;2.75;;;19.90;86.70;;;;;;5024206;28;20205;-42
2024/03/15 11:35:54;;;;;;;4.78;2.20;;;20.30;92.30;;;;;;5037203;28;20198;-39
2024/03/15 11:38:28;;;;;;;3.60;2.30;;;20.10;91.80;;;;;;5016096;28;20327;-40
2024/03/15 11:41:02;;;;;;;3.45;2.35;;;19.90;91.00;;;;;;5039860;28;20741;-40
2024/03/15 11:43:29;;;;;;;6.95;2.38;;;20.40;91.80;;;;;;5022464;28;20631;-40
2024/03/15 11:45:57;;;;;;;3.85;2.78;;;20.30;91.80;;;;;;5031810;28;20240;-39
2024/03/15 11:48:26;;;;;;;5.70;2.50;;;20.20;91.50;;;;;;5031281;28;20288;-37
2024/03/15 11:50:53;;;;;;;2.20;2.00;;;20.10;91.40;;;;;;5031798;28;20332;-39
2024/03/15 11:53:28;;;;;;;5.53;2.92;;;20.30;87.50;;;;;;5031134;28;20202;-42
2024/03/15 11:55:59;;;;;;;4.83;3.20;;;20.40;82.60;;;;;;5031219;28;20190;-38
2024/03/15 11:58:27;;;;;;;3.88;2.90;;;20.20;81.90;;;;;;5029664;28;20979;-42
2024/03/15 12:00:55;;;;;;;3.10;2.55;;;20.40;82.20;;;;;;5044706;28;20210;-39
2024/03/15 12:03:34;;;;;;;6.28;2.50;;;20.40;82.50;;;;;;5032147;28;20198;-39
2024/03/15 12:06:05;;;;;;;4.63;2.00;;;20.10;81.20;;;;;;5025566;28;20195;-39
2024/03/15 12:08:41;;;;;;;;;;;;;;;;;;;;;
2024/03/15 12:11:12;;;;;;;5.13;2.60;;;19.90;81.80;;;;;;5013720;28;20201;-40
2024/03/15 12:13:57;;;;;;;3.47;3.17;;;20.00;82.60;;;;;;5014290;28;20198;-40
2024/03/15 12:16:28;;;;;;;5.30;2.65;;;19.70;79.70;;;;;;5041766;28;20221;-39
2024/03/15 12:18:58;;;;;;;6.25;2.28;;;19.70;81.80;;;;;;5030821;28;20198;-39
2024/03/15 12:21:31;;;;;;;6.38;2.00;;;19.70;81.60;;;;;;5032415;28;20304;-40
2024/03/15 12:23:59;;;;;;;3.95;2.30;;;20.00;82.60;;;;;;5025787;28;20286;-41
2024/03/15 12:26:34;;;;;;;2.20;1.65;;;19.80;81.20;;;;;;5028076;28;20197;-39
2024/03/15 12:31:45;;;;;;;4.25;2.50;;;19.70;80.00;;;;;;5026673;28;20693;-39
2024/03/15 12:34:12;;;;;;;2.80;1.80;;;20.10;81.40;;;;;;5028137;28;20650;-40
2024/03/15 12:36:43;;;;;;;5.90;2.15;;;19.80;79.90;;;;;;5025125;28;20209;-41
2024/03/15 12:39:15;;;;;;;7.68;2.20;;;19.80;80.60;;;;;;5025716;28;20645;-39
2024/03/15 12:41:43;;;;;;;7.90;3.58;;;19.80;80.50;;;;;;5025054;28;20222;-40
2024/03/15 12:44:12;;;;;;;3.90;2.45;;;19.80;81.60;;;;;;5027182;28;20202;-39
2024/03/15 12:46:43;;;;;;;3.00;1.88;;;19.70;80.90;;;;;;5024936;28;20205;-40
2024/03/15 12:49:17;;;;;;;2.92;2.20;;;19.70;80.70;;;;;;5019814;28;20357;-42
2024/03/15 12:51:46;;;;;;;2.17;1.70;;;19.60;80.90;;;;;;5027276;28;20693;-40
2024/03/15 12:54:14;;;;;;;3.80;1.83;;;19.70;79.70;;;;;;5030179;28;20202;-40
2024/03/15 12:56:46;;;;;;;4.70;1.67;;;19.80;81.50;;;;;;5042947;28;20310;-40
2024/03/15 12:59:16;;;;;;;3.25;2.13;;;20.00;80.60;;;;;;4964862;28;20821;-38
2024/03/15 13:01:43;;;;;;;2.40;1.55;;;20.10;83.60;;;;;;5017449;28;20222;-43
2024/03/15 13:04:11;;;;;;;5.60;2.13;;;20.10;84.70;;;;;;5027197;28;20206;-40
2024/03/15 13:06:45;;;;;;;2.53;1.48;;;20.50;85.10;;;;;;5022313;28;20195;-40